WetterOnline ( http://www.wetteronline.de )

Wetter aktuell Itzehoe

Aktuelles Wetter: Itzehoe (26m)

6-stündlich | Neueste Meldungen
Ortszeit Temperatur Wetter
Mi, 19.09. 20:00 19.2° C wolkenlos
Mi, 19.09. 14:00 23.9° C fast wolkenlos
Mi, 19.09. 8:00 14.6° C wolkenlos
Mi, 19.09. 2:00 14.9° C wolkenlos
Di, 18.09. 20:00 18.9° C wolkenlos
Di, 18.09. 14:00 27.4° C wolkenlos
Di, 18.09. 8:00 13.7° C wolkenlos
Di, 18.09. 2:00 15.2° C wolkenlos
Ortszeit Temperatur Wetter
Mi, 19.09. 20:00 19.2° C wolkenlos
Mi, 19.09. 19:50 19.2° C wolkenlos
Mi, 19.09. 19:40 20.0° C wolkenlos
Mi, 19.09. 19:30 20.4° C fast wolkenlos
Mi, 19.09. 19:20 20.4° C fast wolkenlos
Mi, 19.09. 19:10 20.8° C leicht bewölkt
Mi, 19.09. 19:00 22.4° C wolkig
Mi, 19.09. 18:30 24.6° C bewölkt
Mi, 19.09. 18:00 24.9° C wolkig
Mi, 19.09. 17:30 25.1° C leicht bewölkt
Mi, 19.09. 17:00 25.6° C fast wolkenlos
Ortszeit Relative Feuchte Sichtweite
Mi, 19.09. 20:00 79% 13 km
Mi, 19.09. 14:00 53% 21 km
Mi, 19.09. 8:00 93% 11 km
Mi, 19.09. 2:00 91% 16 km
Di, 18.09. 20:00 80% 19 km
Di, 18.09. 14:00 39% 10 km
Di, 18.09. 8:00 72% 22 km
Di, 18.09. 2:00 67% 35 km
Ortszeit Relative Feuchte Sichtweite
Mi, 19.09. 20:00 79% 13 km
Mi, 19.09. 19:50 79% -
Mi, 19.09. 19:40 75% -
Mi, 19.09. 19:30 74% 18 km
Mi, 19.09. 19:20 74% -
Mi, 19.09. 19:10 72% -
Mi, 19.09. 19:00 66% 12 km
Mi, 19.09. 18:30 53% 30 km
Mi, 19.09. 18:00 51% 35 km
Mi, 19.09. 17:30 50% 40 km
Mi, 19.09. 17:00 47% 30 km
Ortszeit Niederschlagsmenge Niederschlagsart
Mi, 19.09. 20:00 0.0 l/m2 in 12 Std. -
Mi, 19.09. 14:00 0.0 l/m2 in 6 Std. -
Mi, 19.09. 8:00 0.0 l/m2 in 12 Std. -
Mi, 19.09. 2:00 0.0 l/m2 in 6 Std. -
Di, 18.09. 20:00 0.0 l/m2 in 12 Std. -
Di, 18.09. 14:00 0.0 l/m2 in 6 Std. -
Di, 18.09. 8:00 0.0 l/m2 in 12 Std. -
Di, 18.09. 2:00 0.0 l/m2 in 6 Std. -
Ortszeit Niederschlagsmenge Niederschlagsart
Mi, 19.09. 20:00 0.0 l/m2 in 1 Std. -
Mi, 19.09. 19:50 keine Meldung -
Mi, 19.09. 19:40 keine Meldung -
Mi, 19.09. 19:30 0.0 l/m2 in 1 Std. -
Mi, 19.09. 19:20 keine Meldung -
Mi, 19.09. 19:10 keine Meldung -
Mi, 19.09. 19:00 0.0 l/m2 in 1 Std. -
Mi, 19.09. 18:30 0.0 l/m2 in 1 Std. -
Mi, 19.09. 18:00 0.0 l/m2 in 1 Std. -
Mi, 19.09. 17:30 0.0 l/m2 in 1 Std. -
Mi, 19.09. 17:00 0.0 l/m2 in 1 Std. -
Ortszeit Stärke Spitze Richtung
km/h Bft. km/h Grad Sektor
Mi, 19.09. 20:00 0 0 40 - -
Mi, 19.09. 14:00 14 3 29 210° SW
Mi, 19.09. 8:00 4 1 14 230° SW
Mi, 19.09. 2:00 4 1 22 210° SW
Di, 18.09. 20:00 11 2 40 330° NW
Di, 18.09. 14:00 13 3 26 180° S
Di, 18.09. 8:00 7 2 14 160° S
Di, 18.09. 2:00 7 2 14 170° S
Ortszeit Stärke Spitze Richtung
km/h Bft. km/h Grad Sektor
Mi, 19.09. 20:00 0 0 22 - -
Mi, 19.09. 19:50 2 1 - 320° NW
Mi, 19.09. 19:40 2 1 - 280° W
Mi, 19.09. 19:30 4 1 22 320° NW
Mi, 19.09. 19:20 4 1 - 320° NW
Mi, 19.09. 19:10 7 2 - 330° NW
Mi, 19.09. 19:00 11 2 22 300° NW
Mi, 19.09. 18:30 11 2 22 250° W
Mi, 19.09. 18:00 11 2 32 240° SW
Mi, 19.09. 17:30 17 3 33 230° SW
Mi, 19.09. 17:00 17 3 37 230° SW
Ortszeit Untergrenze Bedeckung Gattung
total tief tief mittel hoch
Mi, 19.09. 20:00 - 0/8 0/8 - - -
Mi, 19.09. 14:00 1380 m 1/8 1/8 - - -
Mi, 19.09. 8:00 - 0/8 0/8 - - -
Mi, 19.09. 2:00 - 0/8 0/8 - - -
Di, 18.09. 20:00 - 0/8 0/8 - - -
Di, 18.09. 14:00 - 0/8 0/8 - - -
Di, 18.09. 8:00 - 0/8 0/8 - - -
Di, 18.09. 2:00 - 0/8 0/8 - - -
Ortszeit Bedeckungsgrad in Achtel und Wolkenuntergrenze
Mi, 19.09. 20:00 keine Wolken
Mi, 19.09. 19:50 keine Wolken
Mi, 19.09. 19:40 keine Wolken
Mi, 19.09. 19:30 1(1800m)
Mi, 19.09. 19:20 1(1800m)
Mi, 19.09. 19:10 3(1800m)
Mi, 19.09. 19:00 6(1800m)
Mi, 19.09. 18:30 6(1800m) 7(2100m) 7(2400m)
Mi, 19.09. 18:00 5(1800m)
Mi, 19.09. 17:30 3(1500m)
Mi, 19.09. 17:00 1(1800m)
Ortszeit Luftdruck NN (hPa) Tendenz (hPa in 3 Std.)
Mi, 19.09. 20:00 1015 + 1,2
Mi, 19.09. 14:00 1015 - 1,1
Mi, 19.09. 8:00 1016 + 0,4
Mi, 19.09. 2:00 1014 + 0,7
Di, 18.09. 20:00 1012 + 2,7
Di, 18.09. 14:00 1010 - 1,8
Di, 18.09. 8:00 1013 - 0,9
Di, 18.09. 2:00 1015 - 1,2
Ortszeit Luftdruck NN (hPa) Tendenz (hPa in 3 Std.)
Mi, 19.09. 20:00 1015 + 1,2
Mi, 19.09. 19:50 1015 keine Meldung
Mi, 19.09. 19:40 1014 keine Meldung
Mi, 19.09. 19:30 1014 + 0,6
Mi, 19.09. 19:20 1014 keine Meldung
Mi, 19.09. 19:10 1014 keine Meldung
Mi, 19.09. 19:00 1014 + 0,2
Mi, 19.09. 18:30 1013 - 0,8
Mi, 19.09. 18:00 1013 - 1,2
Mi, 19.09. 17:30 1013 - 1,6
Mi, 19.09. 17:00 1013 - 1,5
Ortszeit Schneehöhe (cm)
Mi, 19.09. 20:00 -
Mi, 19.09. 14:00 -
Mi, 19.09. 8:00 -
Mi, 19.09. 2:00 -
Di, 18.09. 20:00 -
Di, 18.09. 14:00 -
Di, 18.09. 8:00 -
Di, 18.09. 2:00 -
Ortszeit Schneehöhe (cm)
Mi, 19.09. 20:00 -
Mi, 19.09. 19:50 -
Mi, 19.09. 19:40 -
Mi, 19.09. 19:30 -
Mi, 19.09. 19:20 -
Mi, 19.09. 19:10 -
Mi, 19.09. 19:00 -
Mi, 19.09. 18:30 -
Mi, 19.09. 18:00 -
Mi, 19.09. 17:30 -
Mi, 19.09. 17:00 -
Link zu dieser Seite / Seite empfehlen

Das Wetter in ...